Fairview, Washington
Current Conditions -  °F | °C
As of 11:53 AM on Thursday 29 Jan 2015 (Local Time) from KYKM Reporting Station
Overcast Overcast  
Wind Chill: 37°   Ceiling: 800
Heat Index: 37°   Visibility: 10mi
Dew Point: 33°   Wind: 0mph
Humidity: 86%   Direction: NA
Pressure: 30.47"   Gusts: NA
Location:  46.562°N, 120.899°W
Report Text: KYKM 291953Z 00000KT 10SM OVC008 03/01 A3047 RMK AO2 SLP328 T00280006
Loading
Personal Weather Stations






























Interactive Weather Map New forecast layout! Learn more

10-Day Weather Forecast

Advertisements
Track Severe Weather on mobile